Upperco, MD

1:10 PM EDT on April 25, 2015 (GMT -0400)
Katies Chase | | Change Station
CLOSE
Current Station
Personal Weather Station
Location: Upperco, MD
Elevation: 666 ft
Nearby Weather Stations

Elev 666 ft 39.55 °N, 76.87 °W | Updated 34 seconds ago

Overcast
Overcast
50.0 °F
Feels Like 50.0 °F
N
0.0
Wind Variable Wind from ESE
Gusts 1.1 mph

Today
High -- | Low -- °F
--% Chance of Precip.
Yesterday
High -- | Low -- °F
Precip. -- in
6:16 AM 7:54 PM
Waxing Crescent, 47% visible
Pressure 29.89 in
Visibility 10.0 miles
Clouds Overcast 7500 ft
Dew Point 25 °F
Humidity 38%
Rainfall 0.00 in
Snow Depth Not available.
UV 3 out of 12
Pollen 10.90 out of 12
Air Quality Not available.
Flu Activity Regional
METAR KDMW 251705Z AUTO 20004KT 10SM OVC075 08/M11 A2989 RMK AO2

More Conditions Fewer Conditions

Pressure 29.89 in
Visibility 10.0 miles
Clouds Overcast 7500 ft
Dew Point 25 °F
Humidity 38%
Rainfall 0.00 in
Snow Depth Not available.
UV 3 out of 12
Pollen 10.90 out of 12
Air Quality Not available.
Flu Activity Regional
METAR KDMW 251705Z AUTO 20004KT 10SM OVC075 08/M11 A2989 RMK AO2

More Conditions Fewer Conditions

10-Day Weather Forecast

Almanac

Astronomy

Apr. 25, 2015 Rise Set
Actual Time
Civil Twilight
Nautical Twilight
Astronomical Twilight
Moon
Length of Visible Light
Length of Day
Tomorrow will be .
, % of the Moon is Illuminated

Today's Extremes

State Highs State Lows

Community

WunderPhotos

Upload Photos

1,816,747 photos uploaded!

WunderBlogs® & News

Nearby

Air Quality

  Air Quality AQ Index Pollutant
Not available.

Snow Depth

Station Depth Elevation

Earthquake Activity

City Distance Mag. Time & Date
Minimum magnitude displayed is 2.5.

Coastal Water Temperatures

Place Temperature

Stations

Nearby Weather Stations

Station Location Temp. Windchill Dew Point Humidity Wind Precip. Elev Updated Type